sensor_id;sensor_type;location;lat;lon;timestamp;pressure;altitude;pressure_sealevel;temperature;humidity
56142;BME280;42018;48.588;10.836;2023-03-18T09:34:57;96570.75;;;13.02;50.35
56142;BME280;42018;48.588;10.836;2023-03-18T09:50:53;96560.56;;;14.03;48.19
56142;BME280;42018;48.588;10.836;2023-03-18T09:57:31;96552.50;;;14.82;48.58
56142;BME280;42018;48.588;10.836;2023-03-18T10:17:16;96541.06;;;16.04;46.69
56142;BME280;42018;48.588;10.836;2023-03-18T10:20:10;96551.50;;;15.70;46.57
56142;BME280;42018;48.588;10.836;2023-03-18T10:23:01;96547.38;;;16.09;45.01
56142;BME280;42018;48.588;10.836;2023-03-18T10:38:18;96533.78;;;16.90;42.64
56142;BME280;42018;48.588;10.836;2023-03-18T10:41:13;96532.19;;;16.89;40.17
56142;BME280;42018;48.588;10.836;2023-03-18T10:44:01;96526.53;;;16.99;41.44
56142;BME280;42018;48.588;10.836;2023-03-18T10:46:49;96523.88;;;16.99;40.01
56142;BME280;42018;48.588;10.836;2023-03-18T10:49:37;96520.47;;;17.42;40.53
56142;BME280;42018;48.588;10.836;2023-03-18T10:55:15;96504.06;;;17.61;38.21
56142;BME280;42018;48.588;10.836;2023-03-18T10:58:07;96503.94;;;17.48;39.34
56142;BME280;42018;48.588;10.836;2023-03-18T11:00:58;96501.53;;;17.64;39.14
56142;BME280;42018;48.588;10.836;2023-03-18T11:03:46;96502.19;;;17.87;38.50
56142;BME280;42018;48.588;10.836;2023-03-18T11:09:20;96493.75;;;18.24;38.25
56142;BME280;42018;48.588;10.836;2023-03-18T11:12:16;96499.59;;;18.26;36.35
56142;BME280;42018;48.588;10.836;2023-03-18T11:15:05;96491.00;;;17.85;36.22
56142;BME280;42018;48.588;10.836;2023-03-18T11:17:50;96494.78;;;17.32;37.72
56142;BME280;42018;48.588;10.836;2023-03-18T11:20:38;96489.41;;;17.67;36.81
56142;BME280;42018;48.588;10.836;2023-03-18T11:23:36;96486.22;;;18.08;36.91
56142;BME280;42018;48.588;10.836;2023-03-18T11:27:01;96485.31;;;17.69;36.43
56142;BME280;42018;48.588;10.836;2023-03-18T11:29:54;96476.25;;;18.26;34.12
56142;BME280;42018;48.588;10.836;2023-03-18T11:32:50;96473.66;;;18.38;35.48
56142;BME280;42018;48.588;10.836;2023-03-18T11:35:56;96468.88;;;18.53;35.17
56142;BME280;42018;48.588;10.836;2023-03-18T11:38:42;96471.25;;;18.54;34.80
56142;BME280;42018;48.588;10.836;2023-03-18T11:41:27;96470.22;;;18.67;34.82
56142;BME280;42018;48.588;10.836;2023-03-18T11:44:15;96467.50;;;18.47;34.32
56142;BME280;42018;48.588;10.836;2023-03-18T11:47:02;96464.53;;;18.99;34.30
56142;BME280;42018;48.588;10.836;2023-03-18T11:49:50;96464.75;;;18.94;34.33
56142;BME280;42018;48.588;10.836;2023-03-18T11:58:28;96456.00;;;18.76;33.99
56142;BME280;42018;48.588;10.836;2023-03-18T12:04:22;96445.97;;;19.35;32.97
56142;BME280;42018;48.588;10.836;2023-03-18T12:07:25;96445.38;;;19.84;34.63
56142;BME280;42018;48.588;10.836;2023-03-18T12:27:19;96428.44;;;19.83;33.20
56142;BME280;42018;48.588;10.836;2023-03-18T12:45:08;96428.56;;;19.87;32.24
56142;BME280;42018;48.588;10.836;2023-03-18T12:48:13;96426.16;;;20.06;32.28
56142;BME280;42018;48.588;10.836;2023-03-18T12:51:14;96415.75;;;20.66;32.26
56142;BME280;42018;48.588;10.836;2023-03-18T12:54:06;96425.44;;;20.67;31.52
56142;BME280;42018;48.588;10.836;2023-03-18T12:56:55;96414.75;;;20.83;30.93
56142;BME280;42018;48.588;10.836;2023-03-18T12:59:44;96413.41;;;20.65;30.51
56142;BME280;42018;48.588;10.836;2023-03-18T13:05:45;96402.66;;;21.17;31.11
56142;BME280;42018;48.588;10.836;2023-03-18T13:08:45;96397.63;;;21.03;31.22
56142;BME280;42018;48.588;10.836;2023-03-18T13:11:45;96396.19;;;21.06;31.08
56142;BME280;42018;48.588;10.836;2023-03-18T13:17:26;96387.31;;;21.46;29.96
56142;BME280;42018;48.588;10.836;2023-03-18T13:26:03;96380.19;;;21.69;30.85
56142;BME280;42018;48.588;10.836;2023-03-18T13:28:54;96384.81;;;21.69;29.78
56142;BME280;42018;48.588;10.836;2023-03-18T13:43:18;96377.88;;;21.68;30.88
56142;BME280;42018;48.588;10.836;2023-03-18T13:46:13;96375.19;;;21.40;30.03
56142;BME280;42018;48.588;10.836;2023-03-18T13:49:01;96374.91;;;20.76;30.14
56142;BME280;42018;48.588;10.836;2023-03-18T13:51:48;96372.56;;;20.75;30.47
56142;BME280;42018;48.588;10.836;2023-03-18T13:54:37;96363.50;;;20.55;29.77
56142;BME280;42018;48.588;10.836;2023-03-18T14:08:52;96355.66;;;20.13;30.86
56142;BME280;42018;48.588;10.836;2023-03-18T14:11:45;96349.94;;;20.27;31.00
56142;BME280;42018;48.588;10.836;2023-03-18T14:14:38;96346.59;;;20.42;29.81
56142;BME280;42018;48.588;10.836;2023-03-18T14:17:25;96352.84;;;20.46;31.02
56142;BME280;42018;48.588;10.836;2023-03-18T14:23:18;96340.34;;;21.19;29.69
56142;BME280;42018;48.588;10.836;2023-03-18T14:26:21;96337.22;;;21.17;30.21
56142;BME280;42018;48.588;10.836;2023-03-18T14:34:52;96330.66;;;20.49;30.37
56142;BME280;42018;48.588;10.836;2023-03-18T14:37:52;96330.66;;;20.37;31.31
56142;BME280;42018;48.588;10.836;2023-03-18T14:40:40;96332.00;;;19.94;31.52
56142;BME280;42018;48.588;10.836;2023-03-18T14:46:15;96332.25;;;20.26;31.09
56142;BME280;42018;48.588;10.836;2023-03-18T14:49:01;96329.09;;;20.24;30.59
56142;BME280;42018;48.588;10.836;2023-03-18T14:51:49;96336.63;;;20.18;31.60
56142;BME280;42018;48.588;10.836;2023-03-18T14:54:37;96328.88;;;19.92;30.74
56142;BME280;42018;48.588;10.836;2023-03-18T14:57:26;96321.94;;;20.03;30.88
56142;BME280;42018;48.588;10.836;2023-03-18T15:00:15;96320.13;;;19.83;31.35
56142;BME280;42018;48.588;10.836;2023-03-18T15:03:08;96321.72;;;19.96;32.46
56142;BME280;42018;48.588;10.836;2023-03-18T15:06:01;96318.13;;;19.92;31.45
56142;BME280;42018;48.588;10.836;2023-03-18T15:08:49;96316.75;;;20.23;31.16
56142;BME280;42018;48.588;10.836;2023-03-18T15:11:42;96313.97;;;20.31;31.73
56142;BME280;42018;48.588;10.836;2023-03-18T15:14:29;96309.72;;;20.18;30.95
56142;BME280;42018;48.588;10.836;2023-03-18T15:17:14;96318.22;;;20.20;31.34
56142;BME280;42018;48.588;10.836;2023-03-18T15:20:02;96322.25;;;20.26;31.14
56142;BME280;42018;48.588;10.836;2023-03-18T15:22:49;96318.13;;;20.04;31.52
56142;BME280;42018;48.588;10.836;2023-03-18T15:25:34;96320.13;;;19.83;31.96
56142;BME280;42018;48.588;10.836;2023-03-18T15:28:22;96326.38;;;19.63;32.52
56142;BME280;42018;48.588;10.836;2023-03-18T15:31:09;96326.28;;;19.38;32.08
56142;BME280;42018;48.588;10.836;2023-03-18T15:36:53;96327.41;;;19.04;33.91
56142;BME280;42018;48.588;10.836;2023-03-18T15:39:39;96322.47;;;18.94;34.47
56142;BME280;42018;48.588;10.836;2023-03-18T15:42:24;96322.06;;;18.83;35.17
56142;BME280;42018;48.588;10.836;2023-03-18T15:45:18;96326.84;;;18.77;34.68
56142;BME280;42018;48.588;10.836;2023-03-18T15:48:05;96327.09;;;18.84;35.04
56142;BME280;42018;48.588;10.836;2023-03-18T15:50:55;96319.56;;;18.78;34.78
56142;BME280;42018;48.588;10.836;2023-03-18T15:53:42;96321.53;;;18.69;36.04
56142;BME280;42018;48.588;10.836;2023-03-18T15:56:32;96311.72;;;18.73;35.51
56142;BME280;42018;48.588;10.836;2023-03-18T15:59:19;96314.03;;;18.53;35.62
56142;BME280;42018;48.588;10.836;2023-03-18T16:02:11;96314.72;;;18.50;36.14
56142;BME280;42018;48.588;10.836;2023-03-18T16:07:50;96316.66;;;18.41;37.02
56142;BME280;42018;48.588;10.836;2023-03-18T16:10:36;96320.31;;;18.36;37.04
56142;BME280;42018;48.588;10.836;2023-03-18T16:13:23;96319.41;;;18.32;37.12
56142;BME280;42018;48.588;10.836;2023-03-18T16:16:13;96315.59;;;18.33;37.09
56142;BME280;42018;48.588;10.836;2023-03-18T16:19:00;96319.00;;;18.22;37.12
56142;BME280;42018;48.588;10.836;2023-03-18T16:21:45;96319.66;;;18.18;37.24
56142;BME280;42018;48.588;10.836;2023-03-18T16:24:31;96326.38;;;17.95;37.49
56142;BME280;42018;48.588;10.836;2023-03-18T16:30:15;96333.88;;;17.72;38.78
56142;BME280;42018;48.588;10.836;2023-03-18T16:33:04;96338.59;;;17.66;39.04
56142;BME280;42018;48.588;10.836;2023-03-18T16:35:59;96343.19;;;17.57;38.82
56142;BME280;42018;48.588;10.836;2023-03-18T16:38:45;96354.88;;;17.53;38.67
56142;BME280;42018;48.588;10.836;2023-03-18T16:41:30;96351.41;;;17.52;38.77
56142;BME280;42018;48.588;10.836;2023-03-18T16:44:16;96347.78;;;17.48;39.02
56142;BME280;42018;48.588;10.836;2023-03-18T16:47:02;96357.88;;;17.42;38.75
56142;BME280;42018;48.588;10.836;2023-03-18T16:49:48;96357.44;;;17.32;38.97
56142;BME280;42018;48.588;10.836;2023-03-18T16:52:33;96367.22;;;17.36;39.56
56142;BME280;42018;48.588;10.836;2023-03-18T16:55:18;96361.66;;;17.41;39.54
56142;BME280;42018;48.588;10.836;2023-03-18T16:58:04;96361.84;;;17.28;39.91
56142;BME280;42018;48.588;10.836;2023-03-18T17:00:49;96354.94;;;17.27;40.24
56142;BME280;42018;48.588;10.836;2023-03-18T17:03:35;96364.69;;;17.22;40.17
56142;BME280;42018;48.588;10.836;2023-03-18T17:06:20;96367.53;;;17.09;39.44
56142;BME280;42018;48.588;10.836;2023-03-18T17:09:16;96369.75;;;16.98;40.08
56142;BME280;42018;48.588;10.836;2023-03-18T17:12:03;96371.63;;;16.89;40.08
56142;BME280;42018;48.588;10.836;2023-03-18T17:14:50;96378.09;;;16.88;40.69
56142;BME280;42018;48.588;10.836;2023-03-18T17:17:36;96366.44;;;16.84;40.58
56142;BME280;42018;48.588;10.836;2023-03-18T17:20:23;96366.59;;;16.79;40.79
56142;BME280;42018;48.588;10.836;2023-03-18T17:23:23;96366.22;;;16.71;41.32
56142;BME280;42018;48.588;10.836;2023-03-18T17:26:09;96370.47;;;16.64;41.25
56142;BME280;42018;48.588;10.836;2023-03-18T17:28:56;96371.72;;;16.58;41.50
56142;BME280;42018;48.588;10.836;2023-03-18T17:31:42;96369.84;;;16.58;42.33
56142;BME280;42018;48.588;10.836;2023-03-18T17:34:28;96366.38;;;16.49;42.43
56142;BME280;42018;48.588;10.836;2023-03-18T17:37:13;96374.06;;;16.42;42.78
56142;BME280;42018;48.588;10.836;2023-03-18T17:39:58;96374.34;;;16.32;43.40
56142;BME280;42018;48.588;10.836;2023-03-18T17:42:44;96383.75;;;16.20;43.81
56142;BME280;42018;48.588;10.836;2023-03-18T17:45:30;96383.69;;;16.03;43.89
56142;BME280;42018;48.588;10.836;2023-03-18T17:48:20;96388.84;;;15.91;44.48
56142;BME280;42018;48.588;10.836;2023-03-18T17:51:07;96390.25;;;15.88;44.46
56142;BME280;42018;48.588;10.836;2023-03-18T17:53:57;96389.22;;;15.75;45.60
56142;BME280;42018;48.588;10.836;2023-03-18T17:56:43;96386.69;;;15.70;45.82
56142;BME280;42018;48.588;10.836;2023-03-18T17:59:29;96395.59;;;15.43;46.61
56142;BME280;42018;48.588;10.836;2023-03-18T18:02:15;96392.03;;;15.25;47.81
56142;BME280;42018;48.588;10.836;2023-03-18T18:05:05;96391.91;;;15.08;48.33
56142;BME280;42018;48.588;10.836;2023-03-18T18:07:50;96389.69;;;15.01;49.29
56142;BME280;42018;48.588;10.836;2023-03-18T18:10:36;96393.94;;;14.52;50.96
56142;BME280;42018;48.588;10.836;2023-03-18T18:13:22;96389.00;;;14.59;51.17
56142;BME280;42018;48.588;10.836;2023-03-18T18:16:07;96385.72;;;14.49;51.50
56142;BME280;42018;48.588;10.836;2023-03-18T18:18:53;96384.13;;;14.48;51.33
56142;BME280;42018;48.588;10.836;2023-03-18T18:21:38;96383.66;;;14.32;51.51
56142;BME280;42018;48.588;10.836;2023-03-18T18:24:25;96385.94;;;14.25;51.65
56142;BME280;42018;48.588;10.836;2023-03-18T18:27:12;96383.66;;;14.18;51.75
56142;BME280;42018;48.588;10.836;2023-03-18T18:29:58;96379.13;;;14.05;52.33
56142;BME280;42018;48.588;10.836;2023-03-18T18:32:44;96388.50;;;14.02;52.40
56142;BME280;42018;48.588;10.836;2023-03-18T18:35:29;96373.50;;;14.06;52.10
56142;BME280;42018;48.588;10.836;2023-03-18T18:38:14;96385.53;;;14.18;51.39
56142;BME280;42018;48.588;10.836;2023-03-18T18:41:00;96378.91;;;14.43;51.01
56142;BME280;42018;48.588;10.836;2023-03-18T18:43:45;96380.09;;;14.23;51.46
56142;BME280;42018;48.588;10.836;2023-03-18T18:46:31;96372.63;;;14.11;52.14
56142;BME280;42018;48.588;10.836;2023-03-18T18:49:21;96373.00;;;14.04;52.48
56142;BME280;42018;48.588;10.836;2023-03-18T18:52:07;96379.72;;;13.88;52.45
56142;BME280;42018;48.588;10.836;2023-03-18T18:54:56;96384.25;;;13.87;52.70
56142;BME280;42018;48.588;10.836;2023-03-18T18:57:41;96378.03;;;13.92;52.37
56142;BME280;42018;48.588;10.836;2023-03-18T19:00:26;96382.66;;;13.86;52.20
56142;BME280;42018;48.588;10.836;2023-03-18T19:03:16;96385.09;;;13.69;52.60
56142;BME280;42018;48.588;10.836;2023-03-18T19:06:34;96388.56;;;13.56;53.53
56142;BME280;42018;48.588;10.836;2023-03-18T19:09:21;96385.28;;;13.59;53.30
56142;BME280;42018;48.588;10.836;2023-03-18T19:12:13;96392.63;;;13.34;53.29
56142;BME280;42018;48.588;10.836;2023-03-18T19:14:58;96396.41;;;13.47;53.28
56142;BME280;42018;48.588;10.836;2023-03-18T19:17:44;96400.22;;;13.41;53.31
56142;BME280;42018;48.588;10.836;2023-03-18T19:20:30;96407.72;;;13.20;54.11
56142;BME280;42018;48.588;10.836;2023-03-18T19:23:26;96403.69;;;12.66;56.20
56142;BME280;42018;48.588;10.836;2023-03-18T19:26:13;96407.88;;;12.29;57.18
56142;BME280;42018;48.588;10.836;2023-03-18T19:28:59;96412.88;;;12.55;56.46
56142;BME280;42018;48.588;10.836;2023-03-18T19:31:45;96412.94;;;12.74;55.98
56142;BME280;42018;48.588;10.836;2023-03-18T19:34:30;96411.22;;;12.59;56.34
56142;BME280;42018;48.588;10.836;2023-03-18T19:37:17;96411.97;;;12.45;56.89
56142;BME280;42018;48.588;10.836;2023-03-18T19:40:05;96408.78;;;12.43;57.22
56142;BME280;42018;48.588;10.836;2023-03-18T19:42:57;96412.56;;;12.37;56.97
56142;BME280;42018;48.588;10.836;2023-03-18T19:45:44;96418.50;;;12.72;55.94
56142;BME280;42018;48.588;10.836;2023-03-18T19:48:30;96417.25;;;12.88;54.90
56142;BME280;42018;48.588;10.836;2023-03-18T19:51:15;96413.41;;;12.57;56.07
56142;BME280;42018;48.588;10.836;2023-03-18T19:54:00;96416.69;;;12.49;56.37
56142;BME280;42018;48.588;10.836;2023-03-18T19:56:46;96420.50;;;12.61;55.97
56142;BME280;42018;48.588;10.836;2023-03-18T19:59:33;96426.72;;;12.33;56.75
56142;BME280;42018;48.588;10.836;2023-03-18T20:02:25;96429.66;;;12.07;57.61
56142;BME280;42018;48.588;10.836;2023-03-18T20:05:18;96427.81;;;11.73;58.34
56142;BME280;42018;48.588;10.836;2023-03-18T20:08:04;96430.38;;;11.25;60.61
56142;BME280;42018;48.588;10.836;2023-03-18T20:10:49;96432.09;;;11.40;60.38
56142;BME280;42018;48.588;10.836;2023-03-18T20:13:35;96446.31;;;11.55;60.17
56142;BME280;42018;48.588;10.836;2023-03-18T20:16:20;96445.06;;;11.76;59.15
56142;BME280;42018;48.588;10.836;2023-03-18T20:19:07;96435.38;;;11.95;58.54
56142;BME280;42018;48.588;10.836;2023-03-18T20:21:52;96442.81;;;11.93;58.86
56142;BME280;42018;48.588;10.836;2023-03-18T20:24:39;96454.34;;;11.79;58.94
56142;BME280;42018;48.588;10.836;2023-03-18T20:27:24;96453.25;;;11.85;59.10
56142;BME280;42018;48.588;10.836;2023-03-18T20:30:20;96456.53;;;11.71;59.73
56142;BME280;42018;48.588;10.836;2023-03-18T20:33:06;96455.06;;;11.55;59.37
56142;BME280;42018;48.588;10.836;2023-03-18T20:35:52;96452.91;;;11.28;60.58
56142;BME280;42018;48.588;10.836;2023-03-18T20:38:38;96451.94;;;11.09;61.62
56142;BME280;42018;48.588;10.836;2023-03-18T20:41:23;96449.28;;;11.14;61.65
56142;BME280;42018;48.588;10.836;2023-03-18T20:44:09;96452.91;;;11.23;60.95
56142;BME280;42018;48.588;10.836;2023-03-18T20:46:56;96456.91;;;11.20;60.94
56142;BME280;42018;48.588;10.836;2023-03-18T20:49:41;96456.28;;;11.34;60.53
56142;BME280;42018;48.588;10.836;2023-03-18T20:52:28;96460.44;;;11.06;61.33
56142;BME280;42018;48.588;10.836;2023-03-18T20:55:25;96448.81;;;11.01;61.85
56142;BME280;42018;48.588;10.836;2023-03-18T20:58:21;96451.16;;;11.08;62.00
56142;BME280;42018;48.588;10.836;2023-03-18T21:01:08;96448.63;;;11.27;60.75
56142;BME280;42018;48.588;10.836;2023-03-18T21:03:56;96442.00;;;11.30;60.56
56142;BME280;42018;48.588;10.836;2023-03-18T21:06:45;96452.53;;;11.00;61.10
56142;BME280;42018;48.588;10.836;2023-03-18T21:09:31;96457.94;;;10.80;61.68
56142;BME280;42018;48.588;10.836;2023-03-18T21:12:17;96454.22;;;10.86;61.48
56142;BME280;42018;48.588;10.836;2023-03-18T21:15:03;96453.72;;;10.74;62.35
56142;BME280;42018;48.588;10.836;2023-03-18T21:17:48;96444.88;;;10.94;61.46
56142;BME280;42018;48.588;10.836;2023-03-18T21:20:33;96445.19;;;10.92;61.57
56142;BME280;42018;48.588;10.836;2023-03-18T21:23:21;96446.56;;;10.79;62.21
56142;BME280;42018;48.588;10.836;2023-03-18T21:26:06;96447.88;;;10.77;61.78
56142;BME280;42018;48.588;10.836;2023-03-18T21:28:53;96452.31;;;10.92;61.56
56142;BME280;42018;48.588;10.836;2023-03-18T21:31:38;96462.28;;;11.10;60.48
56142;BME280;42018;48.588;10.836;2023-03-18T21:34:23;96462.56;;;11.09;60.65
56142;BME280;42018;48.588;10.836;2023-03-18T21:37:12;96463.34;;;11.09;60.34
56142;BME280;42018;48.588;10.836;2023-03-18T21:39:58;96457.78;;;11.06;60.93
56142;BME280;42018;48.588;10.836;2023-03-18T21:42:43;96457.28;;;11.03;60.63
56142;BME280;42018;48.588;10.836;2023-03-18T21:45:30;96462.16;;;10.81;61.16
56142;BME280;42018;48.588;10.836;2023-03-18T21:48:15;96460.72;;;10.54;63.11
56142;BME280;42018;48.588;10.836;2023-03-18T21:51:01;96458.59;;;10.57;62.74
56142;BME280;42018;48.588;10.836;2023-03-18T21:53:46;96463.28;;;10.70;61.79
56142;BME280;42018;48.588;10.836;2023-03-18T21:56:32;96458.84;;;10.55;62.04
56142;BME280;42018;48.588;10.836;2023-03-18T21:59:17;96449.09;;;10.50;62.06
56142;BME280;42018;48.588;10.836;2023-03-18T22:02:04;96455.47;;;10.44;62.09
56142;BME280;42018;48.588;10.836;2023-03-18T22:04:50;96454.97;;;10.37;62.24
56142;BME280;42018;48.588;10.836;2023-03-18T22:07:35;96446.47;;;10.35;62.57
56142;BME280;42018;48.588;10.836;2023-03-18T22:10:21;96444.16;;;10.03;63.03
56142;BME280;42018;48.588;10.836;2023-03-18T22:13:23;96448.16;;;10.00;63.10
56142;BME280;42018;48.588;10.836;2023-03-18T22:16:13;96449.75;;;9.96;64.20
56142;BME280;42018;48.588;10.836;2023-03-18T22:18:58;96442.09;;;9.74;65.32
56142;BME280;42018;48.588;10.836;2023-03-18T22:21:43;96443.69;;;9.80;65.02
56142;BME280;42018;48.588;10.836;2023-03-18T22:24:28;96446.06;;;9.87;64.41
56142;BME280;42018;48.588;10.836;2023-03-18T22:30:03;96451.88;;;9.84;64.53
56142;BME280;42018;48.588;10.836;2023-03-18T22:32:48;96451.34;;;9.92;64.21
56142;BME280;42018;48.588;10.836;2023-03-18T22:35:34;96449.78;;;9.76;64.53
56142;BME280;42018;48.588;10.836;2023-03-18T22:38:20;96452.41;;;9.96;64.08
56142;BME280;42018;48.588;10.836;2023-03-18T22:41:08;96453.47;;;9.85;64.00
56142;BME280;42018;48.588;10.836;2023-03-18T22:43:57;96450.31;;;9.63;65.17
56142;BME280;42018;48.588;10.836;2023-03-18T22:46:43;96452.69;;;9.74;64.24
56142;BME280;42018;48.588;10.836;2023-03-18T22:49:29;96456.16;;;9.34;66.01
56142;BME280;42018;48.588;10.836;2023-03-18T22:52:21;96459.34;;;9.36;66.10
56142;BME280;42018;48.588;10.836;2023-03-18T22:55:41;96464.06;;;9.34;65.68
56142;BME280;42018;48.588;10.836;2023-03-18T22:58:20;96463.03;;;9.30;66.09
56142;BME280;42018;48.588;10.836;2023-03-18T23:01:06;96471.47;;;9.22;66.70
56142;BME280;42018;48.588;10.836;2023-03-18T23:03:51;96468.31;;;9.40;65.89
56142;BME280;42018;48.588;10.836;2023-03-18T23:06:36;96466.72;;;9.44;65.54
56142;BME280;42018;48.588;10.836;2023-03-18T23:09:22;96467.78;;;9.43;65.86
56142;BME280;42018;48.588;10.836;2023-03-18T23:12:07;96474.66;;;9.44;65.58
56142;BME280;42018;48.588;10.836;2023-03-18T23:14:53;96473.06;;;9.48;65.10
56142;BME280;42018;48.588;10.836;2023-03-18T23:17:38;96472.03;;;9.44;65.72
56142;BME280;42018;48.588;10.836;2023-03-18T23:20:23;96473.09;;;9.43;65.65
56142;BME280;42018;48.588;10.836;2023-03-18T23:23:09;96466.72;;;9.39;65.71
56142;BME280;42018;48.588;10.836;2023-03-18T23:25:55;96468.78;;;8.91;67.96
56142;BME280;42018;48.588;10.836;2023-03-18T23:28:40;96472.75;;;8.99;67.49
56142;BME280;42018;48.588;10.836;2023-03-18T23:31:25;96470.13;;;9.04;68.06
56142;BME280;42018;48.588;10.836;2023-03-18T23:34:11;96475.66;;;8.97;68.00
56142;BME280;42018;48.588;10.836;2023-03-18T23:36:56;96465.63;;;9.09;67.01
56142;BME280;42018;48.588;10.836;2023-03-18T23:39:41;96468.31;;;9.15;66.82
56142;BME280;42018;48.588;10.836;2023-03-18T23:42:27;96471.47;;;9.17;66.89
56142;BME280;42018;48.588;10.836;2023-03-18T23:45:12;96488.91;;;9.23;66.58
56142;BME280;42018;48.588;10.836;2023-03-18T23:47:57;96484.16;;;9.15;66.41
56142;BME280;42018;48.588;10.836;2023-03-18T23:50:42;96488.34;;;8.95;67.28
56142;BME280;42018;48.588;10.836;2023-03-18T23:53:28;96489.66;;;9.03;67.06
56142;BME280;42018;48.588;10.836;2023-03-18T23:56:13;96480.16;;;9.07;66.93
56142;BME280;42018;48.588;10.836;2023-03-18T23:58:59;96483.88;;;9.16;66.71
